Batumi International Airport
UGSB : rendu visible

Aérodrome :











RETROUVEZ-NOUS SUR...

 
LOGIN :

S'inscrire | Disclaimer

   EN    FR    IT 

 









Légende :    VFR   VFR Marginal   IFR   IFR Intensif   IFR Très Intensif
Visi : 
Plafond : 
>= 8 km
>= 3000ft
5 à 8 km
1000 à 3000 ft
1500m à 5 km
500 à 1000 ft
800 à 1500m
200 à 500 ft
< 800m
< 200 ft
Symboles :   Orages  Brouillard  Fortes neiges  Fortes précipitations  Vent > 20 kt







- Altitude de l'aérodrome : 105 ft
- Code IATA : BUS


UGSB - Batumi International

DERNIER METAR :
  • 242000Z 13011KT 9999 FEW035 20/17 Q1015 R13/70D NOSIG

METARs EXPIRÉS :
  • 241930Z 14008KT 9999 FEW033 20/17 Q1015 R13/CLRD70 NOSIG
  • 241900Z 13008KT 9999 FEW030 20/17 Q1015 R13/70D NOSIG
  • 241830Z 14008KT 9999 FEW030 20/18 Q1015 R13/CLRD70 NOSIG
  • 241800Z 13007KT 9999 FEW030 20/18 Q1015 R13/CLRD70 NOSIG
  • 241730Z 14006KT 9999 FEW035 20/19 Q1015 R13/CLRD70 NOSIG

TAF TAF UGSB
Valide du 24 à 18h jusqu'au 25 à 18h UTC


241700Z 2418/2518 13010KT 9999 FEW030 SCT080 TX27/2511Z TN20/2500Z
TEMPO 2418/2423 VRB03KT
PROB40
TEMPO 2418/2501 5000 TSRA SCT018 BKN025CB
BECMG 2506/2508 23007KT
FIR UGGG / Asie



MET'MAP, la Météo Aéronautique d'un coup d'oeil ! - Copyright ORBIFLY Décembre 2007 - Disclaimer

ORBIFLY MET'MAP TEAM :

Programmation & Développement : Alexandra Zaïnal
Conception & Développement : Baudouin d'Aumeries
Co-Programmation & Développement : Marc-Olivier Méhu
Soutien technique & logistique : Manuel Goepfert

Contact : metmap@orbifly.com




SOURCES & CREDITS :

   NOAA       Earth
Advisory